Terminal Aerodrome Forecast
Issued by NWS

Home | Current Version | Previous Version | Text Only | Print | Product List | Glossary On
Versions: 1 2 3 4 5 6 7 8 9 10 11 12 13 14 15 16 17
000
FTUS45 KTFX 060102 AAA
TAFLWT
TAF AMD
KLWT 060102Z 0601/0624 31009KT P6SM SCT015 BKN040
      TEMPO 0601/0603 2SM -SHSN BKN015
     FM060300 29007KT P6SM SCT015 BKN050
      TEMPO 0611/0615 1/2SM FZFG BKN015=

USA.gov is the U.S. government's official web portal to all federal, state and local government web resources and services.